Time;durP1;ratioP1;P1;durP2;ratioP2;P2;SDS_P1;SDS_P2;PMS_P1;PMS_P2;Temp;Humidity;BMP_temperature;BMP_pressure;BME280_temperature;BME280_humidity;BME280_pressure;Samples;Min_cycle;Max_cycle;Signal;HPM_P1;HPM_P2
2023/05/31 00:01:38;;;;;;;14.07;4.43;;;;;;;;;;6319358;22;20407;-93
2023/05/31 00:04:04;;;;;;;11.80;4.75;;;;;;;;;;6322329;22;20452;-92
2023/05/31 00:06:33;;;;;;;10.60;4.40;;;;;;;;;;6323760;22;20192;-92
2023/05/31 00:08:59;;;;;;;12.88;5.10;;;;;;;;;;6323084;22;20033;-93
2023/05/31 00:11:26;;;;;;;12.73;4.50;;;;;;;;;;6350793;22;20050;-93
2023/05/31 00:13:53;;;;;;;12.13;4.70;;;;;;;;;;6321424;22;20011;-93
2023/05/31 00:16:19;;;;;;;10.65;4.28;;;;;;;;;;6341753;22;20011;-93
2023/05/31 00:18:46;;;;;;;14.05;4.72;;;;;;;;;;6311099;22;20011;-93
2023/05/31 00:21:12;;;;;;;13.43;4.53;;;;;;;;;;6334687;22;20348;-93
2023/05/31 00:23:39;;;;;;;16.00;4.38;;;;;;;;;;6307947;22;20026;-92
2023/05/31 00:26:05;;;;;;;11.70;5.18;;;;;;;;;;6307217;22;20003;-92
2023/05/31 00:28:32;;;;;;;8.90;4.60;;;;;;;;;;6333455;22;20018;-93
2023/05/31 00:30:58;;;;;;;15.43;4.97;;;;;;;;;;6332932;22;20007;-92
2023/05/31 00:33:24;;;;;;;9.48;4.63;;;;;;;;;;6307748;22;20014;-91
2023/05/31 00:35:50;;;;;;;9.50;4.65;;;;;;;;;;6308924;22;20007;-94
2023/05/31 00:38:16;;;;;;;15.50;4.40;;;;;;;;;;6307039;22;20112;-93
2023/05/31 00:40:49;;;;;;;8.18;4.72;;;;;;;;;;6307510;22;20023;-93
2023/05/31 00:43:15;;;;;;;9.52;4.53;;;;;;;;;;6308967;22;20011;-94
2023/05/31 00:45:48;;;;;;;16.13;6.05;;;;;;;;;;6307892;22;20062;-92
2023/05/31 00:48:14;;;;;;;14.20;4.80;;;;;;;;;;6335952;22;20359;-93
2023/05/31 00:50:40;;;;;;;8.95;4.00;;;;;;;;;;6334829;22;20011;-94
2023/05/31 00:53:07;;;;;;;10.82;4.60;;;;;;;;;;6307983;22;20055;-92
2023/05/31 00:55:33;;;;;;;14.65;5.28;;;;;;;;;;6335087;22;20010;-93
2023/05/31 00:58:00;;;;;;;9.45;4.38;;;;;;;;;;6332232;22;20420;-93
2023/05/31 01:00:26;;;;;;;14.23;4.68;;;;;;;;;;6333836;22;20010;-93
2023/05/31 01:02:53;;;;;;;10.77;4.07;;;;;;;;;;6309849;22;20021;-92
2023/05/31 01:05:19;;;;;;;10.00;4.38;;;;;;;;;;6309159;22;20007;-92
2023/05/31 01:07:46;;;;;;;11.45;4.43;;;;;;;;;;6309003;22;20299;-93
2023/05/31 01:10:13;;;;;;;11.00;4.95;;;;;;;;;;6334561;22;20380;-92
2023/05/31 01:12:39;;;;;;;13.07;5.18;;;;;;;;;;6332659;22;20002;-93
2023/05/31 01:15:17;;;;;;;10.85;4.80;;;;;;;;;;6333987;22;20361;-92
2023/05/31 01:18:02;;;;;;;13.07;5.45;;;;;;;;;;6334397;22;20003;-92
2023/05/31 01:20:34;;;;;;;12.23;4.65;;;;;;;;;;6334197;22;20010;-92
2023/05/31 01:23:09;;;;;;;15.05;5.05;;;;;;;;;;6334912;22;20007;-91
2023/05/31 01:25:41;;;;;;;11.38;4.72;;;;;;;;;;6334236;22;20429;-91
2023/05/31 01:28:15;;;;;;;10.65;4.82;;;;;;;;;;6331421;22;20010;-90
2023/05/31 01:30:41;;;;;;;17.42;5.63;;;;;;;;;;6333617;22;19999;-91
2023/05/31 01:33:12;;;;;;;11.43;5.45;;;;;;;;;;6332985;22;20579;-92
2023/05/31 01:35:41;;;;;;;13.02;5.20;;;;;;;;;;6332515;22;20595;-92
2023/05/31 01:38:07;;;;;;;14.07;5.43;;;;;;;;;;6333482;22;20003;-93
2023/05/31 01:40:41;;;;;;;11.18;5.03;;;;;;;;;;6314296;22;20047;-92
2023/05/31 01:43:15;;;;;;;10.30;4.95;;;;;;;;;;6313665;22;20014;-93
2023/05/31 01:45:42;;;;;;;15.50;5.30;;;;;;;;;;6313604;22;20014;-92
2023/05/31 01:48:18;;;;;;;15.80;4.57;;;;;;;;;;6312209;22;20021;-93
2023/05/31 01:50:44;;;;;;;;;;;;;;;;;;6341121;22;20439;-92
2023/05/31 01:53:11;;;;;;;11.65;4.97;;;;;;;;;;6366218;22;19910;-93
2023/05/31 01:55:37;;;;;;;10.15;4.40;;;;;;;;;;6313818;22;20014;-92
2023/05/31 01:58:05;;;;;;;15.88;5.47;;;;;;;;;;6341574;22;20426;-91
2023/05/31 02:00:31;;;;;;;8.95;4.75;;;;;;;;;;6315458;22;20015;-91
2023/05/31 02:02:58;;;;;;;14.95;5.00;;;;;;;;;;6312924;22;20010;-92
2023/05/31 02:05:27;;;;;;;13.40;5.30;;;;;;;;;;6313182;22;20368;-92
2023/05/31 02:07:54;;;;;;;13.02;4.95;;;;;;;;;;6314858;22;20030;-91
2023/05/31 02:10:21;;;;;;;13.13;4.97;;;;;;;;;;6339601;22;20453;-91
2023/05/31 02:12:50;;;;;;;11.00;4.90;;;;;;;;;;6312506;22;20006;-91
2023/05/31 02:15:23;;;;;;;15.85;5.00;;;;;;;;;;6339632;22;20010;-91
2023/05/31 02:17:51;;;;;;;14.27;4.80;;;;;;;;;;6339054;22;20038;-91
2023/05/31 02:20:17;;;;;;;14.80;5.32;;;;;;;;;;6339901;22;20021;-92
2023/05/31 02:22:44;;;;;;;16.02;5.72;;;;;;;;;;6312921;22;20013;-92
2023/05/31 02:25:12;;;;;;;18.35;5.43;;;;;;;;;;6339015;22;20002;-92
2023/05/31 02:27:38;;;;;;;13.85;5.75;;;;;;;;;;6339815;22;20498;-91
2023/05/31 02:30:08;;;;;;;17.20;5.20;;;;;;;;;;6338742;22;20007;-92
2023/05/31 02:32:41;;;;;;;13.57;5.22;;;;;;;;;;6315863;22;20075;-92
2023/05/31 02:35:14;;;;;;;15.85;5.65;;;;;;;;;;6312325;22;20036;-91
2023/05/31 02:37:41;;;;;;;14.35;5.75;;;;;;;;;;6339512;22;20104;-90
2023/05/31 02:40:08;;;;;;;11.68;4.93;;;;;;;;;;6313147;22;20017;-92
2023/05/31 02:42:39;;;;;;;12.98;4.88;;;;;;;;;;6309200;22;20068;-91
2023/05/31 02:45:06;;;;;;;16.00;5.20;;;;;;;;;;6333372;22;20045;-92
2023/05/31 02:47:33;;;;;;;15.65;6.18;;;;;;;;;;6333770;22;20007;-91
2023/05/31 02:49:59;;;;;;;13.38;5.97;;;;;;;;;;6307663;22;20013;-92
2023/05/31 02:52:26;;;;;;;15.38;5.03;;;;;;;;;;6334045;22;20003;-92
2023/05/31 02:54:52;;;;;;;18.23;5.53;;;;;;;;;;6333037;22;20007;-92
2023/05/31 02:57:19;;;;;;;9.93;4.88;;;;;;;;;;6308367;22;20840;-92
2023/05/31 02:59:46;;;;;;;14.10;4.95;;;;;;;;;;6333552;22;20002;-92
2023/05/31 03:02:18;;;;;;;12.30;5.25;;;;;;;;;;6334308;22;20334;-92
2023/05/31 03:04:45;;;;;;;14.35;5.72;;;;;;;;;;6307694;22;20010;-91
2023/05/31 03:07:11;;;;;;;15.63;5.53;;;;;;;;;;6308095;22;20006;-93
2023/05/31 03:09:37;;;;;;;18.33;5.30;;;;;;;;;;6307908;22;20037;-94
2023/05/31 03:12:05;;;;;;;10.60;5.72;;;;;;;;;;6307884;22;20010;-92
2023/05/31 03:14:31;;;;;;;12.48;5.70;;;;;;;;;;6307321;22;20340;-92
2023/05/31 03:16:58;;;;;;;13.80;5.63;;;;;;;;;;6308678;22;20015;-93
2023/05/31 03:19:24;;;;;;;16.48;5.82;;;;;;;;;;6307685;22;20421;-92
2023/05/31 03:21:50;;;;;;;11.82;4.93;;;;;;;;;;6334328;22;20007;-92
2023/05/31 03:24:16;;;;;;;13.60;5.20;;;;;;;;;;6307211;22;20785;-93
2023/05/31 03:26:43;;;;;;;12.93;5.70;;;;;;;;;;6307886;22;20007;-92
2023/05/31 03:29:09;;;;;;;14.77;6.55;;;;;;;;;;6306380;22;20067;-92
2023/05/31 03:31:35;;;;;;;18.60;5.72;;;;;;;;;;6307070;22;20076;-91
2023/05/31 03:34:01;;;;;;;18.88;5.90;;;;;;;;;;6307113;22;20018;-92
2023/05/31 03:36:28;;;;;;;25.25;6.38;;;;;;;;;;6307571;22;20011;-92
2023/05/31 03:38:54;;;;;;;25.52;6.97;;;;;;;;;;6307851;22;20011;-92
2023/05/31 03:41:20;;;;;;;15.23;5.85;;;;;;;;;;6307582;22;20023;-91
2023/05/31 03:43:47;;;;;;;18.13;5.53;;;;;;;;;;6333158;22;20091;-92
2023/05/31 03:46:13;;;;;;;16.63;5.50;;;;;;;;;;6332672;22;20003;-91
2023/05/31 03:48:39;;;;;;;16.10;6.32;;;;;;;;;;6307495;22;20026;-92
2023/05/31 03:51:05;;;;;;;16.50;6.38;;;;;;;;;;6307414;22;20253;-92
2023/05/31 03:53:32;;;;;;;20.10;6.40;;;;;;;;;;6307255;22;20011;-91
2023/05/31 03:55:58;;;;;;;23.90;6.10;;;;;;;;;;6307192;22;20633;-92
2023/05/31 03:58:24;;;;;;;22.85;6.95;;;;;;;;;;6308595;22;20025;-91
2023/05/31 04:00:50;;;;;;;28.33;9.57;;;;;;;;;;6308797;22;20239;-92
2023/05/31 04:03:17;;;;;;;15.48;6.47;;;;;;;;;;6335678;22;20483;-91
2023/05/31 04:05:44;;;;;;;21.83;6.35;;;;;;;;;;6335241;22;20007;-91
2023/05/31 04:08:10;;;;;;;20.05;6.97;;;;;;;;;;6333761;22;20003;-92
2023/05/31 04:10:37;;;;;;;33.08;8.85;;;;;;;;;;6334330;22;20063;-91
2023/05/31 04:13:03;;;;;;;20.92;6.90;;;;;;;;;;6308166;22;20321;-92
2023/05/31 04:15:36;;;;;;;19.50;7.70;;;;;;;;;;6310394;22;20428;-91
2023/05/31 04:18:02;;;;;;;27.30;7.90;;;;;;;;;;6310185;22;20014;-92
2023/05/31 04:20:28;;;;;;;24.45;7.30;;;;;;;;;;6312635;22;20067;-91
2023/05/31 04:22:54;;;;;;;27.98;8.15;;;;;;;;;;6311807;22;20017;-92
2023/05/31 04:25:24;;;;;;;24.02;8.05;;;;;;;;;;6313009;22;20007;-91
2023/05/31 04:27:51;;;;;;;27.75;8.30;;;;;;;;;;6340487;22;20002;-93
2023/05/31 04:30:18;;;;;;;28.20;8.45;;;;;;;;;;6313320;22;20467;-91
2023/05/31 04:32:44;;;;;;;24.77;8.50;;;;;;;;;;6314158;22;20034;-91
2023/05/31 04:35:10;;;;;;;18.92;8.05;;;;;;;;;;6314118;22;20010;-89
2023/05/31 04:37:37;;;;;;;25.17;8.15;;;;;;;;;;6340237;22;20014;-92
2023/05/31 04:40:05;;;;;;;29.33;8.13;;;;;;;;;;6338537;22;20018;-91
2023/05/31 04:42:31;;;;;;;25.98;8.68;;;;;;;;;;6338621;22;20073;-93
2023/05/31 04:45:01;;;;;;;29.58;9.15;;;;;;;;;;6336946;22;20038;-91
2023/05/31 04:47:36;;;;;;;36.35;8.57;;;;;;;;;;6312244;22;20030;-92
2023/05/31 04:50:03;;;;;;;25.65;8.45;;;;;;;;;;6309925;22;20064;-92
2023/05/31 04:52:30;;;;;;;20.67;8.60;;;;;;;;;;6335769;22;20018;-92
2023/05/31 04:54:57;;;;;;;21.65;9.40;;;;;;;;;;6310020;22;20090;-90
2023/05/31 04:57:29;;;;;;;25.10;7.80;;;;;;;;;;6333858;22;20569;-91
2023/05/31 04:59:58;;;;;;;37.53;7.85;;;;;;;;;;6331659;22;20400;-91
2023/05/31 05:02:26;;;;;;;25.30;7.93;;;;;;;;;;6309034;22;20472;-91
2023/05/31 05:04:53;;;;;;;25.85;7.63;;;;;;;;;;6335657;22;19995;-91
2023/05/31 05:07:21;;;;;;;22.50;7.38;;;;;;;;;;6334977;22;20002;-91
2023/05/31 05:09:47;;;;;;;22.17;7.13;;;;;;;;;;6335046;22;19998;-91
2023/05/31 05:12:13;;;;;;;19.33;6.18;;;;;;;;;;6307695;22;20014;-92
2023/05/31 05:14:39;;;;;;;18.23;6.38;;;;;;;;;;6333196;22;20428;-91
2023/05/31 05:17:09;;;;;;;14.55;6.38;;;;;;;;;;6309496;22;20097;-90
2023/05/31 05:19:35;;;;;;;21.52;6.93;;;;;;;;;;6308617;22;20071;-91
2023/05/31 05:22:01;;;;;;;23.58;6.78;;;;;;;;;;6309176;22;20010;-91
2023/05/31 05:24:27;;;;;;;11.57;5.60;;;;;;;;;;6307576;22;20032;-91
2023/05/31 05:26:54;;;;;;;21.73;6.38;;;;;;;;;;6308844;22;20088;-91
2023/05/31 05:29:23;;;;;;;19.52;6.05;;;;;;;;;;6333010;22;20532;-91
2023/05/31 05:31:49;;;;;;;16.23;5.68;;;;;;;;;;6307179;22;20011;-92
2023/05/31 05:34:16;;;;;;;21.30;5.75;;;;;;;;;;6307985;22;20426;-91
2023/05/31 05:36:45;;;;;;;15.38;6.10;;;;;;;;;;6307841;22;20019;-91
2023/05/31 05:39:11;;;;;;;25.17;7.25;;;;;;;;;;6306987;22;20010;-92
2023/05/31 05:41:44;;;;;;;14.60;6.05;;;;;;;;;;6313762;22;20026;-91
2023/05/31 05:44:17;;;;;;;14.25;5.47;;;;;;;;;;6312870;22;20458;-91
2023/05/31 05:46:44;;;;;;;12.82;5.60;;;;;;;;;;6312093;22;20013;-92
2023/05/31 05:49:11;;;;;;;21.23;5.68;;;;;;;;;;6312952;22;20007;-91
2023/05/31 05:51:37;;;;;;;17.67;5.93;;;;;;;;;;6339364;22;20003;-92
2023/05/31 05:54:03;;;;;;;12.52;5.28;;;;;;;;;;6311345;22;20466;-91
2023/05/31 05:56:32;;;;;;;11.88;5.22;;;;;;;;;;6312901;22;20102;-91
2023/05/31 05:58:59;;;;;;;20.40;4.97;;;;;;;;;;6337251;22;20455;-91
2023/05/31 06:01:26;;;;;;;17.80;4.80;;;;;;;;;;6313984;22;20010;-92
2023/05/31 06:03:54;;;;;;;15.20;5.22;;;;;;;;;;6312467;22;20063;-91
2023/05/31 06:06:20;;;;;;;17.15;4.97;;;;;;;;;;6312357;22;20118;-90
2023/05/31 06:08:56;;;;;;;17.00;6.28;;;;;;;;;;6311350;22;20623;-91
2023/05/31 06:11:23;;;;;;;11.25;4.28;;;;;;;;;;6313426;22;20351;-92
2023/05/31 06:13:49;;;;;;;14.75;4.32;;;;;;;;;;6310383;22;20014;-92
2023/05/31 06:16:15;;;;;;;18.73;4.63;;;;;;;;;;6311422;22;20010;-93
2023/05/31 06:18:54;;;;;;;10.70;4.57;;;;;;;;;;6337838;22;20436;-92
2023/05/31 06:21:20;;;;;;;14.27;3.67;;;;;;;;;;6312155;22;20036;-93
2023/05/31 06:23:46;;;;;;;8.93;4.20;;;;;;;;;;6311090;22;20697;-93
2023/05/31 06:26:15;;;;;;;11.30;4.07;;;;;;;;;;6339720;22;20044;-93
2023/05/31 06:28:47;;;;;;;16.33;4.70;;;;;;;;;;6312589;22;20436;-92
2023/05/31 06:31:19;;;;;;;15.52;4.13;;;;;;;;;;6313349;22;20033;-93
2023/05/31 06:33:46;;;;;;;13.20;4.20;;;;;;;;;;6312988;22;20453;-91
2023/05/31 06:36:12;;;;;;;16.52;4.70;;;;;;;;;;6311976;22;20731;-92
2023/05/31 06:39:02;;;;;;;18.20;4.32;;;;;;;;;;6312818;22;20006;-94
2023/05/31 06:41:26;;;;;;;13.90;4.72;;;;;;;;;;6341352;22;20393;-93
2023/05/31 06:43:52;;;;;;;12.65;4.43;;;;;;;;;;6332520;22;20132;-92
2023/05/31 06:46:18;;;;;;;15.20;4.30;;;;;;;;;;6307887;22;20007;-92
2023/05/31 06:48:45;;;;;;;10.88;4.00;;;;;;;;;;6307966;22;20034;-92
2023/05/31 06:51:16;;;;;;;13.48;4.00;;;;;;;;;;6307205;22;20098;-93
2023/05/31 06:53:46;;;;;;;13.18;3.70;;;;;;;;;;6307643;22;20018;-93
2023/05/31 06:56:12;;;;;;;6.97;3.80;;;;;;;;;;6307200;22;20507;-93
2023/05/31 06:58:41;;;;;;;12.60;3.80;;;;;;;;;;6307738;22;20600;-93
2023/05/31 07:01:13;;;;;;;15.05;4.40;;;;;;;;;;6308006;22;20170;-94
2023/05/31 07:03:39;;;;;;;11.57;3.72;;;;;;;;;;6309235;22;20536;-92
2023/05/31 07:06:08;;;;;;;12.95;3.35;;;;;;;;;;6307398;22;20021;-94
2023/05/31 07:08:35;;;;;;;8.23;3.72;;;;;;;;;;6306919;22;20006;-94
2023/05/31 07:11:01;;;;;;;10.70;3.30;;;;;;;;;;6307702;22;20010;-94
2023/05/31 07:13:31;;;;;;;11.18;3.70;;;;;;;;;;6305694;22;20015;-93
2023/05/31 07:16:00;;;;;;;8.75;2.92;;;;;;;;;;6306878;22;20011;-93
2023/05/31 07:18:26;;;;;;;7.18;3.47;;;;;;;;;;6307028;22;20082;-92
2023/05/31 07:20:56;;;;;;;5.43;2.78;;;;;;;;;;6333830;22;20006;-92
2023/05/31 07:23:26;;;;;;;4.88;2.22;;;;;;;;;;6306665;22;20487;-91
2023/05/31 07:25:52;;;;;;;4.32;1.70;;;;;;;;;;6306408;22;20007;-91
2023/05/31 07:28:18;;;;;;;3.70;1.90;;;;;;;;;;6305331;22;20007;-91
2023/05/31 07:30:44;;;;;;;3.92;1.90;;;;;;;;;;6305534;22;20375;-92
2023/05/31 07:33:11;;;;;;;3.90;1.70;;;;;;;;;;6332195;22;20010;-92
2023/05/31 07:35:37;;;;;;;6.57;1.90;;;;;;;;;;6306160;22;20463;-92
2023/05/31 07:38:07;;;;;;;17.67;3.05;;;;;;;;;;6306295;22;20440;-92
2023/05/31 07:40:42;;;;;;;6.20;1.48;;;;;;;;;;6307530;22;20007;-91
2023/05/31 07:43:11;;;;;;;5.80;1.30;;;;;;;;;;6326357;22;20018;-90
2023/05/31 07:45:40;;;;;;;7.50;2.45;;;;;;;;;;6307482;22;20003;-91
2023/05/31 07:48:07;;;;;;;4.45;1.63;;;;;;;;;;6333154;22;20075;-93
2023/05/31 07:51:09;;;;;;;5.07;1.50;;;;;;;;;;6310295;22;19999;-91
2023/05/31 07:53:36;;;;;;;3.13;1.45;;;;;;;;;;6187868;22;20036;-92
2023/05/31 07:56:02;;;;;;;5.07;2.08;;;;;;;;;;6332384;22;20018;-91
2023/05/31 07:58:31;;;;;;;9.95;1.75;;;;;;;;;;6306252;22;20317;-92
2023/05/31 08:01:03;;;;;;;6.32;1.85;;;;;;;;;;6304181;22;20302;-92
2023/05/31 08:03:31;;;;;;;6.18;1.98;;;;;;;;;;6334470;22;20015;-91
2023/05/31 08:05:58;;;;;;;3.95;1.58;;;;;;;;;;6334222;22;20029;-91
2023/05/31 08:08:25;;;;;;;8.85;1.73;;;;;;;;;;6333809;22;20003;-91
2023/05/31 08:10:56;;;;;;;5.82;2.35;;;;;;;;;;6334694;22;20011;-91
2023/05/31 08:13:24;;;;;;;4.75;1.65;;;;;;;;;;6333590;22;20014;-91
2023/05/31 08:15:52;;;;;;;9.35;2.00;;;;;;;;;;6308733;22;20095;-91
2023/05/31 08:18:18;;;;;;;5.53;2.20;;;;;;;;;;6307871;22;20064;-91
2023/05/31 08:20:44;;;;;;;10.32;2.70;;;;;;;;;;6334338;22;20003;-90
2023/05/31 08:26:04;;;;;;;7.05;2.72;;;;;;;;;;6313084;22;20025;-91
2023/05/31 08:28:33;;;;;;;8.85;2.60;;;;;;;;;;6307996;22;20039;-91
2023/05/31 08:30:59;;;;;;;6.13;1.95;;;;;;;;;;6307389;22;20011;-92
2023/05/31 08:36:22;;;;;;;7.90;2.33;;;;;;;;;;6208488;23;20008;-91
2023/05/31 08:38:51;;;;;;;13.40;3.08;;;;;;;;;;6315910;22;20089;-92
2023/05/31 08:41:37;;;;;;;7.30;2.15;;;;;;;;;;6333333;22;20029;-92
2023/05/31 08:44:07;;;;;;;10.10;3.05;;;;;;;;;;6335115;22;20441;-91
2023/05/31 08:46:35;;;;;;;6.70;3.25;;;;;;;;;;6336974;22;20425;-91
2023/05/31 08:49:02;;;;;;;7.00;2.95;;;;;;;;;;6336020;22;20341;-91
2023/05/31 08:51:28;;;;;;;9.65;2.58;;;;;;;;;;6334373;22;20492;-91
2023/05/31 08:53:57;;;;;;;7.03;2.50;;;;;;;;;;6337322;22;20014;-92
2023/05/31 08:56:24;;;;;;;7.80;2.75;;;;;;;;;;6336856;22;20211;-91
2023/05/31 08:58:51;;;;;;;9.20;3.17;;;;;;;;;;6343072;22;20002;-91
2023/05/31 09:01:21;;;;;;;10.10;3.20;;;;;;;;;;6312884;22;20014;-91
2023/05/31 09:03:47;;;;;;;9.75;2.45;;;;;;;;;;6338079;22;20013;-91
2023/05/31 09:06:13;;;;;;;11.48;3.05;;;;;;;;;;6337833;22;20447;-90
2023/05/31 09:08:44;;;;;;;10.57;2.38;;;;;;;;;;6312621;22;20087;-91
2023/05/31 09:11:11;;;;;;;7.15;2.47;;;;;;;;;;6337448;22;20062;-91
2023/05/31 09:13:38;;;;;;;10.40;2.70;;;;;;;;;;6336949;22;20010;-92
2023/05/31 09:16:07;;;;;;;11.35;2.45;;;;;;;;;;6339246;22;20032;-93
2023/05/31 09:18:38;;;;;;;9.82;2.92;;;;;;;;;;6317739;22;20011;-91
2023/05/31 09:21:23;;;;;;;11.90;3.20;;;;;;;;;;6312483;22;20140;-92
2023/05/31 09:24:23;;;;;;;21.15;3.58;;;;;;;;;;6316793;22;20007;-92
2023/05/31 09:26:50;;;;;;;10.88;2.88;;;;;;;;;;6275668;22;20440;-91
2023/05/31 09:29:40;;;;;;;11.82;3.13;;;;;;;;;;6338687;22;20064;-91
2023/05/31 09:32:12;;;;;;;11.52;3.42;;;;;;;;;;6339193;22;20014;-92
2023/05/31 09:34:43;;;;;;;10.80;3.72;;;;;;;;;;6339348;22;20035;-91
2023/05/31 09:37:09;;;;;;;9.45;3.67;;;;;;;;;;6339942;22;20020;-91
2023/05/31 09:39:55;;;;;;;;;;;;;;;;;;6341034;22;20022;-93
2023/05/31 09:42:33;;;;;;;13.63;2.97;;;;;;;;;;6341536;22;20023;-92
2023/05/31 09:45:00;;;;;;;7.40;3.67;;;;;;;;;;6339039;22;20360;-92
2023/05/31 09:48:04;;;;;;;12.75;3.22;;;;;;;;;;6339774;22;20027;-92
2023/05/31 09:50:39;;;;;;;14.60;4.00;;;;;;;;;;6339991;22;20064;-91
2023/05/31 09:53:06;;;;;;;9.50;3.53;;;;;;;;;;6317356;22;20045;-92
2023/05/31 09:55:46;;;;;;;10.63;4.03;;;;;;;;;;6339748;22;20007;-91
2023/05/31 09:58:30;;;;;;;11.13;3.45;;;;;;;;;;6317882;22;20298;-92
2023/05/31 10:01:00;;;;;;;10.00;3.10;;;;;;;;;;6340565;22;20097;-91
2023/05/31 10:03:28;;;;;;;7.97;4.10;;;;;;;;;;6313985;22;20011;-92
2023/05/31 10:05:55;;;;;;;12.35;3.83;;;;;;;;;;6340869;22;20010;-92
2023/05/31 10:08:31;;;;;;;8.82;3.13;;;;;;;;;;6312547;22;20320;-91
2023/05/31 10:10:59;;;;;;;7.80;3.08;;;;;;;;;;6340326;22;20030;-93
2023/05/31 10:13:28;;;;;;;9.27;5.00;;;;;;;;;;6340483;22;20003;-92
2023/05/31 10:15:58;;;;;;;11.35;3.85;;;;;;;;;;6339766;22;20007;-93
2023/05/31 10:18:54;;;;;;;6.95;3.60;;;;;;;;;;6340376;22;20033;-93
2023/05/31 10:21:40;;;;;;;11.73;4.20;;;;;;;;;;6248877;22;20181;-92
2023/05/31 10:24:26;;;;;;;12.57;4.53;;;;;;;;;;6250233;22;20011;-91
2023/05/31 10:27:01;;;;;;;12.05;4.55;;;;;;;;;;6325728;22;20018;-92
2023/05/31 10:29:29;;;;;;;7.70;3.42;;;;;;;;;;6340251;22;20021;-92
2023/05/31 10:34:51;;;;;;;6.63;3.70;;;;;;;;;;6275865;22;20266;-92
2023/05/31 10:37:18;;;;;;;7.93;3.85;;;;;;;;;;6314706;22;20007;-91
2023/05/31 10:39:56;;;;;;;11.18;3.78;;;;;;;;;;6311062;22;20391;-91
2023/05/31 10:42:31;;;;;;;8.40;3.63;;;;;;;;;;6336451;22;20086;-92
2023/05/31 10:45:06;;;;;;;8.30;4.53;;;;;;;;;;6336349;22;20350;-91
2023/05/31 10:47:43;;;;;;;5.00;3.60;;;;;;;;;;6311513;22;20022;-91
2023/05/31 10:50:17;;;;;;;17.17;4.00;;;;;;;;;;6335480;22;20011;-91
2023/05/31 10:52:43;;;;;;;14.27;3.75;;;;;;;;;;6336103;22;20055;-91
2023/05/31 10:55:32;;;;;;;8.93;3.97;;;;;;;;;;6308605;22;20018;-91
2023/05/31 10:58:05;;;;;;;14.20;3.80;;;;;;;;;;6318441;22;20562;-93
2023/05/31 11:00:31;;;;;;;9.60;3.60;;;;;;;;;;6334641;22;20006;-92
2023/05/31 11:03:07;;;;;;;30.05;4.40;;;;;;;;;;6333236;22;20010;-92
2023/05/31 11:05:33;;;;;;;;;;;;;;;;;;6333620;22;20021;-93
2023/05/31 11:07:59;;;;;;;8.30;3.05;;;;;;;;;;6330985;22;19938;-90
2023/05/31 11:10:26;;;;;;;8.68;3.28;;;;;;;;;;6332394;22;20006;-93
2023/05/31 11:13:05;;;;;;;10.55;3.92;;;;;;;;;;6329930;22;20370;-93
2023/05/31 11:15:47;;;;;;;7.13;3.67;;;;;;;;;;6331936;22;20060;-93
2023/05/31 11:18:23;;;;;;;8.35;2.80;;;;;;;;;;6310052;22;20090;-93
2023/05/31 11:20:49;;;;;;;8.30;2.80;;;;;;;;;;6333029;22;20455;-93
2023/05/31 11:23:30;;;;;;;8.40;2.63;;;;;;;;;;6332919;22;20533;-93
2023/05/31 11:26:18;;;;;;;4.63;2.28;;;;;;;;;;6307542;22;20114;-92
2023/05/31 11:28:57;;;;;;;7.93;2.70;;;;;;;;;;6333163;22;20203;-92
2023/05/31 11:31:44;;;;;;;9.50;3.38;;;;;;;;;;6334281;22;20006;-92
2023/05/31 11:34:33;;;;;;;7.95;2.90;;;;;;;;;;6307276;22;20095;-93
2023/05/31 11:37:10;;;;;;;9.73;2.55;;;;;;;;;;6332480;22;20010;-93
2023/05/31 11:39:43;;;;;;;10.10;2.95;;;;;;;;;;6332026;22;20003;-92
2023/05/31 11:42:14;;;;;;;5.88;2.65;;;;;;;;;;6307740;22;20676;-93
2023/05/31 11:47:46;;;;;;;10.98;2.80;;;;;;;;;;6299689;22;20044;-91
2023/05/31 11:50:18;;;;;;;6.78;2.38;;;;;;;;;;6332811;22;20082;-93
2023/05/31 11:52:54;;;;;;;4.50;1.85;;;;;;;;;;6332740;22;20012;-93
2023/05/31 11:55:21;;;;;;;8.60;2.40;;;;;;;;;;6331907;22;20014;-93
2023/05/31 11:57:54;;;;;;;7.70;2.53;;;;;;;;;;6332620;22;20003;-92
2023/05/31 12:00:23;;;;;;;6.60;2.45;;;;;;;;;;6307459;22;20021;-94
2023/05/31 12:05:39;;;;;;;10.43;2.78;;;;;;;;;;6306567;22;20010;-92
2023/05/31 12:08:12;;;;;;;6.15;2.85;;;;;;;;;;6306399;22;20038;-92
2023/05/31 12:10:38;;;;;;;7.25;2.60;;;;;;;;;;6308911;22;20068;-93
2023/05/31 12:13:21;;;;;;;6.80;2.35;;;;;;;;;;6306362;22;20015;-92
2023/05/31 12:15:53;;;;;;;6.05;2.10;;;;;;;;;;6309733;22;20018;-92
2023/05/31 12:18:20;;;;;;;9.02;2.65;;;;;;;;;;6331875;22;20106;-91
2023/05/31 12:26:36;;;;;;;9.20;3.10;;;;;;;;;;6314291;22;20020;-92
2023/05/31 12:29:02;;;;;;;9.35;3.45;;;;;;;;;;6335646;22;20003;-92
2023/05/31 12:31:32;;;;;;;12.88;2.90;;;;;;;;;;6307818;22;20063;-92
2023/05/31 12:34:00;;;;;;;6.95;2.25;;;;;;;;;;6333033;22;20011;-92
2023/05/31 12:36:27;;;;;;;8.63;3.25;;;;;;;;;;6335253;22;20132;-92
2023/05/31 12:38:56;;;;;;;7.35;2.80;;;;;;;;;;6334080;22;20003;-92
2023/05/31 12:41:22;;;;;;;9.30;2.90;;;;;;;;;;6333972;22;20003;-93
2023/05/31 12:43:58;;;;;;;6.88;2.20;;;;;;;;;;6308313;22;20050;-92
2023/05/31 12:46:45;;;;;;;12.50;2.90;;;;;;;;;;6334172;22;20067;-92
2023/05/31 12:49:15;;;;;;;9.60;3.40;;;;;;;;;;6311240;22;20017;-94
2023/05/31 12:51:42;;;;;;;8.10;3.20;;;;;;;;;;6309711;22;20391;-92
2023/05/31 12:54:17;;;;;;;10.07;2.83;;;;;;;;;;6335093;22;20111;-92
2023/05/31 12:56:43;;;;;;;11.85;3.13;;;;;;;;;;6337132;22;20056;-92
2023/05/31 12:59:10;;;;;;;6.47;2.95;;;;;;;;;;6309657;22;20480;-90
2023/05/31 13:01:38;;;;;;;10.10;2.97;;;;;;;;;;6307557;22;20011;-90
2023/05/31 13:04:08;;;;;;;6.13;2.80;;;;;;;;;;6333711;22;20018;-91
2023/05/31 13:06:57;;;;;;;9.65;3.45;;;;;;;;;;6311158;22;20006;-93
2023/05/31 13:09:33;;;;;;;6.43;2.60;;;;;;;;;;6187403;23;20009;-92
2023/05/31 13:11:59;;;;;;;6.25;2.55;;;;;;;;;;6186048;23;20036;-92
2023/05/31 13:14:25;;;;;;;10.70;2.50;;;;;;;;;;6253275;22;20010;-92
2023/05/31 13:16:51;;;;;;;6.28;2.72;;;;;;;;;;6340020;22;20003;-92
2023/05/31 13:19:27;;;;;;;9.35;3.53;;;;;;;;;;6309462;22;20065;-94
2023/05/31 13:21:53;;;;;;;;;;;;;;;;;;6336216;22;20002;-90
2023/05/31 13:24:23;;;;;;;5.90;2.72;;;;;;;;;;6340105;22;19945;-90
2023/05/31 13:27:03;;;;;;;13.00;3.28;;;;;;;;;;6343759;22;20007;-89
2023/05/31 13:29:34;;;;;;;8.75;2.67;;;;;;;;;;6343328;22;20030;-91
2023/05/31 13:32:34;;;;;;;6.63;2.38;;;;;;;;;;6316520;22;20090;-91
2023/05/31 13:34:53;;;;;;;9.00;2.45;;;;;;;;;;6327022;22;20030;-92
2023/05/31 13:37:25;;;;;;;7.82;2.53;;;;;;;;;;6308736;22;20480;-91
2023/05/31 13:42:43;;;;;;;4.13;2.53;;;;;;;;;;6342387;22;20124;-90
2023/05/31 13:45:09;;;;;;;6.85;2.90;;;;;;;;;;6342469;22;20037;-90
2023/05/31 13:47:56;;;;;;;6.32;3.20;;;;;;;;;;6336826;22;20489;-90
2023/05/31 13:50:23;;;;;;;9.45;3.10;;;;;;;;;;6312940;22;20002;-90
2023/05/31 13:52:49;;;;;;;4.50;2.58;;;;;;;;;;6337129;22;20056;-90
2023/05/31 13:55:18;;;;;;;8.27;2.63;;;;;;;;;;6307971;22;20014;-90
2023/05/31 13:57:44;;;;;;;5.68;2.60;;;;;;;;;;6333698;22;20032;-91
2023/05/31 14:00:11;;;;;;;8.10;2.85;;;;;;;;;;6305693;22;20026;-90
2023/05/31 14:02:40;;;;;;;10.27;3.65;;;;;;;;;;6332513;22;20084;-91
2023/05/31 14:05:09;;;;;;;11.35;3.33;;;;;;;;;;6332893;22;20009;-90
2023/05/31 14:07:38;;;;;;;7.03;2.85;;;;;;;;;;6307900;22;20007;-90
2023/05/31 14:10:23;;;;;;;5.90;2.75;;;;;;;;;;6329640;22;20010;-90
2023/05/31 14:12:49;;;;;;;6.40;1.97;;;;;;;;;;6307171;22;20034;-91
2023/05/31 14:15:18;;;;;;;8.77;2.08;;;;;;;;;;6330688;22;20017;-90
2023/05/31 14:17:45;;;;;;;9.02;2.75;;;;;;;;;;6330342;22;20086;-90
2023/05/31 14:20:12;;;;;;;9.98;2.42;;;;;;;;;;6303837;22;20010;-90
2023/05/31 14:22:38;;;;;;;5.57;2.47;;;;;;;;;;6305698;22;20006;-91
2023/05/31 14:25:05;;;;;;;7.82;2.20;;;;;;;;;;6332864;22;20236;-90
2023/05/31 14:27:31;;;;;;;15.00;3.92;;;;;;;;;;6330209;22;20580;-90
2023/05/31 14:29:57;;;;;;;8.25;2.45;;;;;;;;;;6303121;22;20015;-90
2023/05/31 14:32:23;;;;;;;7.57;2.60;;;;;;;;;;6304833;22;20018;-90
2023/05/31 14:34:49;;;;;;;5.78;2.67;;;;;;;;;;6305312;22;20011;-90
2023/05/31 14:37:16;;;;;;;5.20;2.65;;;;;;;;;;6306233;22;20013;-90
2023/05/31 14:39:43;;;;;;;9.02;2.33;;;;;;;;;;6306522;22;20013;-91
2023/05/31 14:42:16;;;;;;;5.97;2.78;;;;;;;;;;6332245;22;20014;-90
2023/05/31 14:44:42;;;;;;;7.47;2.35;;;;;;;;;;6329151;22;20444;-90
2023/05/31 14:47:08;;;;;;;3.15;2.05;;;;;;;;;;6306192;22;20060;-91
2023/05/31 14:49:35;;;;;;;5.55;1.98;;;;;;;;;;6303024;22;20057;-91
2023/05/31 14:52:01;;;;;;;7.70;3.20;;;;;;;;;;6304881;22;20094;-91
2023/05/31 14:54:27;;;;;;;13.48;2.53;;;;;;;;;;6300272;22;20078;-88
2023/05/31 14:56:53;;;;;;;8.38;2.60;;;;;;;;;;6330244;22;20085;-89
2023/05/31 14:59:22;;;;;;;6.50;2.58;;;;;;;;;;6303477;22;20052;-90
2023/05/31 15:01:49;;;;;;;6.13;2.45;;;;;;;;;;6303138;22;20060;-90
2023/05/31 15:04:15;;;;;;;8.57;2.72;;;;;;;;;;6327413;22;20010;-89
2023/05/31 15:06:44;;;;;;;6.40;2.75;;;;;;;;;;6327669;22;20007;-89
2023/05/31 15:09:12;;;;;;;6.95;2.92;;;;;;;;;;6301273;22;20318;-90
2023/05/31 15:11:38;;;;;;;9.18;2.60;;;;;;;;;;6302670;22;20010;-89
2023/05/31 15:14:04;;;;;;;5.72;2.83;;;;;;;;;;6330258;22;19998;-89